sensor_id;sensor_type;location;lat;lon;timestamp;pressure;altitude;pressure_sealevel;temperature;humidity
84134;BME280;74235;48.688;9.708;2024-02-23T00:00:18;95672.78;;;22.28;41.98
84134;BME280;74235;48.688;9.708;2024-02-23T00:02:46;95676.97;;;22.26;42.33
84134;BME280;74235;48.688;9.708;2024-02-23T00:05:13;95691.63;;;22.25;42.30
84134;BME280;74235;48.688;9.708;2024-02-23T00:07:42;95690.81;;;22.24;40.86
84134;BME280;74235;48.688;9.708;2024-02-23T00:10:10;95687.31;;;22.24;41.08
84134;BME280;74235;48.688;9.708;2024-02-23T00:12:38;95666.81;;;22.23;41.32
84134;BME280;74235;48.688;9.708;2024-02-23T00:15:06;95654.44;;;22.22;41.46
84134;BME280;74235;48.688;9.708;2024-02-23T00:17:34;95653.97;;;22.20;42.75
84134;BME280;74235;48.688;9.708;2024-02-23T00:20:02;95682.63;;;22.21;41.45
84134;BME280;74235;48.688;9.708;2024-02-23T00:22:32;95666.72;;;22.19;41.42
84134;BME280;74235;48.688;9.708;2024-02-23T00:25:03;95687.56;;;22.19;42.45
84134;BME280;74235;48.688;9.708;2024-02-23T00:27:31;95705.72;;;22.18;42.62
84134;BME280;74235;48.688;9.708;2024-02-23T00:29:59;95698.72;;;22.17;41.25
84134;BME280;74235;48.688;9.708;2024-02-23T00:32:26;95712.56;;;22.16;42.28
84134;BME280;74235;48.688;9.708;2024-02-23T00:34:55;95717.97;;;22.16;41.96
84134;BME280;74235;48.688;9.708;2024-02-23T00:37:23;95731.50;;;22.16;42.35
84134;BME280;74235;48.688;9.708;2024-02-23T00:39:50;95729.94;;;22.15;42.12
84134;BME280;74235;48.688;9.708;2024-02-23T00:42:19;95724.84;;;22.13;41.19
84134;BME280;74235;48.688;9.708;2024-02-23T00:44:48;95737.59;;;22.13;42.46
84134;BME280;74235;48.688;9.708;2024-02-23T00:47:15;95744.13;;;22.12;40.97
84134;BME280;74235;48.688;9.708;2024-02-23T00:49:43;95733.28;;;22.12;41.67
84134;BME280;74235;48.688;9.708;2024-02-23T00:52:10;95733.28;;;22.12;41.62
84134;BME280;74235;48.688;9.708;2024-02-23T00:54:38;95730.16;;;22.10;41.53
84134;BME280;74235;48.688;9.708;2024-02-23T00:57:06;95742.88;;;22.09;41.92
84134;BME280;74235;48.688;9.708;2024-02-23T00:59:35;95739.38;;;22.09;42.29
84134;BME280;74235;48.688;9.708;2024-02-23T01:02:02;95739.38;;;22.09;42.14
84134;BME280;74235;48.688;9.708;2024-02-23T01:04:30;95748.63;;;22.08;40.91
84134;BME280;74235;48.688;9.708;2024-02-23T01:06:57;95739.75;;;22.07;41.91
84134;BME280;74235;48.688;9.708;2024-02-23T01:09:25;95741.63;;;22.07;42.67
84134;BME280;74235;48.688;9.708;2024-02-23T01:11:53;95743.88;;;22.05;42.54
84134;BME280;74235;48.688;9.708;2024-02-23T01:14:21;95746.59;;;22.05;41.61
84134;BME280;74235;48.688;9.708;2024-02-23T01:16:50;95759.75;;;22.06;41.57
84134;BME280;74235;48.688;9.708;2024-02-23T01:19:18;95758.53;;;22.04;41.88
84134;BME280;74235;48.688;9.708;2024-02-23T01:21:46;95762.03;;;22.04;42.78
84134;BME280;74235;48.688;9.708;2024-02-23T01:24:13;95756.97;;;22.03;41.01
84134;BME280;74235;48.688;9.708;2024-02-23T01:26:41;95756.97;;;22.03;42.37
84134;BME280;74235;48.688;9.708;2024-02-23T01:29:09;95740.75;;;22.03;41.18
84134;BME280;74235;48.688;9.708;2024-02-23T01:31:37;95744.56;;;22.02;41.80
84134;BME280;74235;48.688;9.708;2024-02-23T01:34:06;95744.56;;;22.02;42.48
84134;BME280;74235;48.688;9.708;2024-02-23T01:36:34;95749.97;;;22.02;40.85
84134;BME280;74235;48.688;9.708;2024-02-23T01:39:03;95736.00;;;22.00;41.96
84134;BME280;74235;48.688;9.708;2024-02-23T01:41:31;95731.41;;;22.00;41.54
84134;BME280;74235;48.688;9.708;2024-02-23T01:43:59;95746.00;;;21.99;41.03
84134;BME280;74235;48.688;9.708;2024-02-23T01:46:27;95749.75;;;21.95;42.10
84134;BME280;74235;48.688;9.708;2024-02-23T01:48:55;95762.56;;;21.98;41.38
84134;BME280;74235;48.688;9.708;2024-02-23T01:51:25;95770.69;;;21.98;41.59
84134;BME280;74235;48.688;9.708;2024-02-23T01:53:53;95778.78;;;21.98;41.47
84134;BME280;74235;48.688;9.708;2024-02-23T01:56:21;95781.50;;;21.98;41.30
84134;BME280;74235;48.688;9.708;2024-02-23T01:58:49;95771.03;;;21.96;40.92
84134;BME280;74235;48.688;9.708;2024-02-23T02:01:17;95766.41;;;21.97;41.07
84134;BME280;74235;48.688;9.708;2024-02-23T02:03:46;95774.84;;;21.95;41.36
84134;BME280;74235;48.688;9.708;2024-02-23T02:06:14;95776.78;;;21.95;42.03
84134;BME280;74235;48.688;9.708;2024-02-23T02:08:43;95770.56;;;21.94;41.42
84134;BME280;74235;48.688;9.708;2024-02-23T02:11:11;95781.38;;;21.94;41.40
84134;BME280;74235;48.688;9.708;2024-02-23T02:13:39;95778.69;;;21.94;42.29
84134;BME280;74235;48.688;9.708;2024-02-23T02:16:06;95780.59;;;21.94;41.89
84134;BME280;74235;48.688;9.708;2024-02-23T02:18:34;95784.41;;;21.93;42.15
84134;BME280;74235;48.688;9.708;2024-02-23T02:21:02;95777.44;;;21.92;40.90
84134;BME280;74235;48.688;9.708;2024-02-23T02:23:30;95781.72;;;21.93;41.00
84134;BME280;74235;48.688;9.708;2024-02-23T02:25:59;95794.47;;;21.92;40.93
84134;BME280;74235;48.688;9.708;2024-02-23T02:28:27;95775.88;;;21.91;42.18
84134;BME280;74235;48.688;9.708;2024-02-23T02:30:54;95777.44;;;21.92;42.17
84134;BME280;74235;48.688;9.708;2024-02-23T02:33:22;95768.88;;;21.90;42.37
84134;BME280;74235;48.688;9.708;2024-02-23T02:35:50;95775.88;;;21.91;41.87
84134;BME280;74235;48.688;9.708;2024-02-23T02:38:18;95766.97;;;21.90;41.84
84134;BME280;74235;48.688;9.708;2024-02-23T02:40:45;95760.75;;;21.90;41.87
84134;BME280;74235;48.688;9.708;2024-02-23T02:43:15;95774.28;;;21.90;40.48
84134;BME280;74235;48.688;9.708;2024-02-23T02:45:42;95770.00;;;21.89;41.09
84134;BME280;74235;48.688;9.708;2024-02-23T02:48:11;95759.41;;;21.84;41.20
84134;BME280;74235;48.688;9.708;2024-02-23T02:50:39;95764.91;;;21.87;42.38
84134;BME280;74235;48.688;9.708;2024-02-23T02:53:07;95773.03;;;21.87;40.81
84134;BME280;74235;48.688;9.708;2024-02-23T02:55:35;95786.88;;;21.86;41.67
84134;BME280;74235;48.688;9.708;2024-02-23T02:58:03;95779.56;;;21.86;41.04
84134;BME280;74235;48.688;9.708;2024-02-23T03:00:32;95779.56;;;21.86;41.66
84134;BME280;74235;48.688;9.708;2024-02-23T03:03:00;95778.78;;;21.86;41.67
84134;BME280;74235;48.688;9.708;2024-02-23T03:05:27;95788.81;;;21.85;40.95
84134;BME280;74235;48.688;9.708;2024-02-23T03:07:55;95782.59;;;21.85;42.45
84134;BME280;74235;48.688;9.708;2024-02-23T03:10:22;95779.91;;;21.85;41.73
84134;BME280;74235;48.688;9.708;2024-02-23T03:12:50;95783.72;;;21.84;40.68
84134;BME280;74235;48.688;9.708;2024-02-23T03:15:17;95781.03;;;21.84;40.96
84134;BME280;74235;48.688;9.708;2024-02-23T03:17:46;95777.53;;;21.83;40.87
84134;BME280;74235;48.688;9.708;2024-02-23T03:20:15;95770.09;;;21.80;41.67
84134;BME280;74235;48.688;9.708;2024-02-23T03:22:43;95776.72;;;21.83;40.61
84134;BME280;74235;48.688;9.708;2024-02-23T03:25:11;95767.06;;;21.82;42.28
84134;BME280;74235;48.688;9.708;2024-02-23T03:27:39;95760.88;;;21.81;42.11
84134;BME280;74235;48.688;9.708;2024-02-23T03:30:07;95760.06;;;21.81;41.64
84134;BME280;74235;48.688;9.708;2024-02-23T03:32:37;95770.88;;;21.81;40.42
84134;BME280;74235;48.688;9.708;2024-02-23T03:35:08;95753.09;;;21.80;40.42
84134;BME280;74235;48.688;9.708;2024-02-23T03:37:36;95742.28;;;21.80;40.59
84134;BME280;74235;48.688;9.708;2024-02-23T03:40:06;95760.88;;;21.81;41.74
84134;BME280;74235;48.688;9.708;2024-02-23T03:42:34;95770.88;;;21.81;40.89
84134;BME280;74235;48.688;9.708;2024-02-23T03:45:02;95790.13;;;21.79;41.98
84134;BME280;74235;48.688;9.708;2024-02-23T03:47:30;95801.75;;;21.80;40.37
84134;BME280;74235;48.688;9.708;2024-02-23T03:49:58;95791.25;;;21.78;41.64
84134;BME280;74235;48.688;9.708;2024-02-23T03:52:27;95801.28;;;21.78;41.52
84134;BME280;74235;48.688;9.708;2024-02-23T03:54:55;95806.69;;;21.78;41.82
84134;BME280;74235;48.688;9.708;2024-02-23T03:57:22;95814.78;;;21.78;40.63
84134;BME280;74235;48.688;9.708;2024-02-23T03:59:53;95800.84;;;21.76;40.22
84134;BME280;74235;48.688;9.708;2024-02-23T04:02:21;95802.41;;;21.77;40.68
84134;BME280;74235;48.688;9.708;2024-02-23T04:04:49;95812.41;;;21.76;40.44
84134;BME280;74235;48.688;9.708;2024-02-23T04:07:17;95802.41;;;21.77;40.67
84134;BME280;74235;48.688;9.708;2024-02-23T04:09:46;95800.84;;;21.76;40.36
84134;BME280;74235;48.688;9.708;2024-02-23T04:12:20;95811.63;;;21.76;41.12
84134;BME280;74235;48.688;9.708;2024-02-23T04:14:47;95822.78;;;21.74;40.81
84134;BME280;74235;48.688;9.708;2024-02-23T04:17:15;95826.25;;;21.75;40.90
84134;BME280;74235;48.688;9.708;2024-02-23T04:19:44;95818.16;;;21.75;40.71
84134;BME280;74235;48.688;9.708;2024-02-23T04:22:12;95807.34;;;21.75;40.72
84134;BME280;74235;48.688;9.708;2024-02-23T04:24:40;95800.22;;;21.70;41.58
84134;BME280;74235;48.688;9.708;2024-02-23T04:27:09;95813.88;;;21.74;40.34
84134;BME280;74235;48.688;9.708;2024-02-23T04:29:37;95810.03;;;21.75;42.11
84134;BME280;74235;48.688;9.708;2024-02-23T04:32:05;95812.31;;;21.73;41.44
84134;BME280;74235;48.688;9.708;2024-02-23T04:34:33;95806.25;;;21.76;40.94
84134;BME280;74235;48.688;9.708;2024-02-23T04:37:02;95803.06;;;21.74;40.82
84134;BME280;74235;48.688;9.708;2024-02-23T04:39:29;95798.47;;;21.74;40.81
84134;BME280;74235;48.688;9.708;2024-02-23T04:41:57;95798.13;;;21.76;41.12
84134;BME280;74235;48.688;9.708;2024-02-23T04:44:26;95791.59;;;21.77;41.01
84134;BME280;74235;48.688;9.708;2024-02-23T04:46:54;95805.09;;;21.77;41.76
84134;BME280;74235;48.688;9.708;2024-02-23T04:49:22;95809.38;;;21.78;40.46
84134;BME280;74235;48.688;9.708;2024-02-23T04:51:50;95800.47;;;21.77;40.59
84134;BME280;74235;48.688;9.708;2024-02-23T04:54:17;95790.03;;;21.76;41.54
84134;BME280;74235;48.688;9.708;2024-02-23T04:56:45;95782.34;;;21.78;40.86
84134;BME280;74235;48.688;9.708;2024-02-23T04:59:12;95791.59;;;21.77;41.71
84134;BME280;74235;48.688;9.708;2024-02-23T05:01:41;95802.41;;;21.77;40.56
84134;BME280;74235;48.688;9.708;2024-02-23T05:04:10;95790.78;;;21.76;41.26
84134;BME280;74235;48.688;9.708;2024-02-23T05:06:37;95778.09;;;21.77;42.01
84134;BME280;74235;48.688;9.708;2024-02-23T05:09:05;95778.09;;;21.77;41.88
84134;BME280;74235;48.688;9.708;2024-02-23T05:11:36;95779.00;;;21.81;41.92
84134;BME280;74235;48.688;9.708;2024-02-23T05:14:04;95779.72;;;22.14;40.24
84134;BME280;74235;48.688;9.708;2024-02-23T05:16:32;95777.09;;;22.50;40.38
84134;BME280;74235;48.688;9.708;2024-02-23T05:19:01;95767.78;;;22.75;38.64
84134;BME280;74235;48.688;9.708;2024-02-23T05:21:28;95777.47;;;22.88;38.76
84134;BME280;74235;48.688;9.708;2024-02-23T05:23:56;95801.94;;;22.91;39.37
84134;BME280;74235;48.688;9.708;2024-02-23T05:26:23;95800.72;;;22.89;40.23
84134;BME280;74235;48.688;9.708;2024-02-23T05:28:51;95791.22;;;22.83;39.35
84134;BME280;74235;48.688;9.708;2024-02-23T05:31:20;95790.56;;;22.86;38.56
84134;BME280;74235;48.688;9.708;2024-02-23T05:33:47;95777.41;;;23.12;38.04
84134;BME280;74235;48.688;9.708;2024-02-23T05:36:18;95786.44;;;23.28;38.85
84134;BME280;74235;48.688;9.708;2024-02-23T05:38:45;95789.00;;;23.36;38.13
84134;BME280;74235;48.688;9.708;2024-02-23T05:41:13;95789.19;;;23.43;37.86
84134;BME280;74235;48.688;9.708;2024-02-23T05:43:41;95807.16;;;23.48;37.99
84134;BME280;74235;48.688;9.708;2024-02-23T05:46:09;95828.81;;;23.48;38.02
84134;BME280;74235;48.688;9.708;2024-02-23T05:48:36;95808.72;;;23.49;39.05
84134;BME280;74235;48.688;9.708;2024-02-23T05:51:04;95792.66;;;23.56;38.05
84134;BME280;74235;48.688;9.708;2024-02-23T05:53:33;95806.19;;;23.56;37.50
84134;BME280;74235;48.688;9.708;2024-02-23T05:56:02;95824.03;;;23.57;38.07
84134;BME280;74235;48.688;9.708;2024-02-23T05:58:31;95831.75;;;23.55;38.27
84134;BME280;74235;48.688;9.708;2024-02-23T06:00:58;95831.28;;;23.53;37.99
84134;BME280;74235;48.688;9.708;2024-02-23T06:03:26;95840.47;;;23.48;37.54
84134;BME280;74235;48.688;9.708;2024-02-23T06:05:54;95825.44;;;23.39;38.98
84134;BME280;74235;48.688;9.708;2024-02-23T06:08:22;95837.69;;;23.61;38.61
84134;BME280;74235;48.688;9.708;2024-02-23T06:10:51;95838.09;;;23.75;38.19
84134;BME280;74235;48.688;9.708;2024-02-23T06:13:19;95830.13;;;23.94;37.10
84134;BME280;74235;48.688;9.708;2024-02-23T06:15:46;95833.63;;;23.94;37.00
84134;BME280;74235;48.688;9.708;2024-02-23T06:18:14;95839.69;;;24.03;37.18
84134;BME280;74235;48.688;9.708;2024-02-23T06:20:42;95844.09;;;24.23;37.72
84134;BME280;74235;48.688;9.708;2024-02-23T06:23:09;95816.00;;;24.16;38.24
84134;BME280;74235;48.688;9.708;2024-02-23T06:25:37;95832.09;;;24.24;38.08
84134;BME280;74235;48.688;9.708;2024-02-23T06:28:06;95820.66;;;24.31;37.53
84134;BME280;74235;48.688;9.708;2024-02-23T06:30:34;95824.94;;;24.32;37.02
84134;BME280;74235;48.688;9.708;2024-02-23T06:33:01;95824.25;;;24.35;37.16
84134;BME280;74235;48.688;9.708;2024-02-23T06:35:29;95821.88;;;24.33;37.76
84134;BME280;74235;48.688;9.708;2024-02-23T06:37:57;95818.72;;;24.31;38.37
84134;BME280;74235;48.688;9.708;2024-02-23T06:40:25;95817.75;;;24.24;38.77
84134;BME280;74235;48.688;9.708;2024-02-23T06:43:08;95822.38;;;24.23;37.80
84134;BME280;74235;48.688;9.708;2024-02-23T06:45:36;95823.88;;;24.21;38.13
84134;BME280;74235;48.688;9.708;2024-02-23T06:48:03;95822.31;;;24.20;38.84
84134;BME280;74235;48.688;9.708;2024-02-23T06:50:31;95821.31;;;24.12;39.05
84134;BME280;74235;48.688;9.708;2024-02-23T06:52:59;95807.22;;;24.07;39.03
84134;BME280;74235;48.688;9.708;2024-02-23T06:55:27;95809.06;;;24.03;39.70
84134;BME280;74235;48.688;9.708;2024-02-23T06:57:54;95803.78;;;23.94;39.86
84134;BME280;74235;48.688;9.708;2024-02-23T07:00:24;95805.16;;;23.88;39.53
84134;BME280;74235;48.688;9.708;2024-02-23T07:02:51;95817.66;;;23.77;40.08
84134;BME280;74235;48.688;9.708;2024-02-23T07:05:19;95818.59;;;23.69;40.77
84134;BME280;74235;48.688;9.708;2024-02-23T07:07:47;95826.94;;;23.64;40.27
84134;BME280;74235;48.688;9.708;2024-02-23T07:10:14;95837.69;;;23.61;40.42
84134;BME280;74235;48.688;9.708;2024-02-23T07:12:42;95845.16;;;23.51;40.75
84134;BME280;74235;48.688;9.708;2024-02-23T07:15:11;95852.66;;;23.42;41.23
84134;BME280;74235;48.688;9.708;2024-02-23T07:17:40;95872.31;;;23.39;40.73
84134;BME280;74235;48.688;9.708;2024-02-23T07:20:09;95865.66;;;23.37;40.84
84134;BME280;74235;48.688;9.708;2024-02-23T07:22:37;95859.34;;;23.33;42.01
84134;BME280;74235;48.688;9.708;2024-02-23T07:25:05;95858.13;;;23.30;41.15
84134;BME280;74235;48.688;9.708;2024-02-23T07:27:32;95861.84;;;23.26;42.24
84134;BME280;74235;48.688;9.708;2024-02-23T07:30:00;95852.47;;;23.23;42.47
84134;BME280;74235;48.688;9.708;2024-02-23T07:32:28;95862.09;;;23.21;42.33
84134;BME280;74235;48.688;9.708;2024-02-23T07:34:59;95863.16;;;23.20;42.10
84134;BME280;74235;48.688;9.708;2024-02-23T07:37:27;95861.16;;;23.17;42.67
84134;BME280;74235;48.688;9.708;2024-02-23T07:39:57;95874.25;;;23.15;42.70
84134;BME280;74235;48.688;9.708;2024-02-23T07:42:25;95855.53;;;23.10;41.71
84134;BME280;74235;48.688;9.708;2024-02-23T07:44:53;95858.25;;;23.10;42.37
84134;BME280;74235;48.688;9.708;2024-02-23T07:47:20;95858.56;;;23.08;41.85
84134;BME280;74235;48.688;9.708;2024-02-23T07:49:48;95865.47;;;23.06;42.57
84134;BME280;74235;48.688;9.708;2024-02-23T07:52:17;95869.28;;;23.05;41.25
84134;BME280;74235;48.688;9.708;2024-02-23T07:54:47;95865.47;;;23.06;43.40
84134;BME280;74235;48.688;9.708;2024-02-23T07:57:15;95848.75;;;23.04;41.86
84134;BME280;74235;48.688;9.708;2024-02-23T07:59:44;95849.88;;;23.03;41.69
84134;BME280;74235;48.688;9.708;2024-02-23T08:02:12;95859.91;;;23.02;42.50
84134;BME280;74235;48.688;9.708;2024-02-23T08:04:39;95865.25;;;22.99;42.57
84134;BME280;74235;48.688;9.708;2024-02-23T08:07:11;95867.63;;;23.00;42.14
84134;BME280;74235;48.688;9.708;2024-02-23T08:09:40;95869.06;;;22.98;42.06
84134;BME280;74235;48.688;9.708;2024-02-23T08:12:08;95855.75;;;22.93;42.81
84134;BME280;74235;48.688;9.708;2024-02-23T08:14:36;95862.53;;;22.87;41.75
84134;BME280;74235;48.688;9.708;2024-02-23T08:17:04;95866.59;;;22.81;40.76
84134;BME280;74235;48.688;9.708;2024-02-23T08:19:32;95870.66;;;22.75;40.32
84134;BME280;74235;48.688;9.708;2024-02-23T08:22:00;95873.25;;;22.71;40.93
84134;BME280;74235;48.688;9.708;2024-02-23T08:24:27;95868.97;;;22.70;41.25
84134;BME280;74235;48.688;9.708;2024-02-23T08:26:56;95861.41;;;22.76;41.52
84134;BME280;74235;48.688;9.708;2024-02-23T08:29:25;95868.41;;;22.77;41.62
84134;BME280;74235;48.688;9.708;2024-02-23T08:31:53;95874.59;;;22.77;41.07
84134;BME280;74235;48.688;9.708;2024-02-23T08:34:22;95869.97;;;22.78;40.80
84134;BME280;74235;48.688;9.708;2024-02-23T08:36:50;95879.22;;;22.77;41.42
84134;BME280;74235;48.688;9.708;2024-02-23T08:39:18;95886.88;;;22.75;41.07
84134;BME280;74235;48.688;9.708;2024-02-23T08:41:45;95874.97;;;22.76;42.22
84134;BME280;74235;48.688;9.708;2024-02-23T08:44:14;95876.97;;;22.79;42.35
84134;BME280;74235;48.688;9.708;2024-02-23T08:46:42;95890.50;;;22.79;41.94
84134;BME280;74235;48.688;9.708;2024-02-23T08:49:09;95876.97;;;22.79;43.00
84134;BME280;74235;48.688;9.708;2024-02-23T08:51:37;95869.31;;;22.81;42.96
84134;BME280;74235;48.688;9.708;2024-02-23T08:54:04;95880.47;;;22.79;42.34
84134;BME280;74235;48.688;9.708;2024-02-23T08:56:37;95881.59;;;22.78;41.35
84134;BME280;74235;48.688;9.708;2024-02-23T08:59:05;95871.56;;;22.79;42.38
84134;BME280;74235;48.688;9.708;2024-02-23T09:01:34;95863.09;;;22.80;42.03
84134;BME280;74235;48.688;9.708;2024-02-23T09:04:02;95867.72;;;22.80;41.71
84134;BME280;74235;48.688;9.708;2024-02-23T09:06:30;95875.38;;;22.78;41.96
84134;BME280;74235;48.688;9.708;2024-02-23T09:09:02;95878.44;;;22.76;41.83
84134;BME280;74235;48.688;9.708;2024-02-23T09:11:31;95879.22;;;22.77;42.63
84134;BME280;74235;48.688;9.708;2024-02-23T09:13:59;95892.44;;;22.78;42.75
84134;BME280;74235;48.688;9.708;2024-02-23T09:16:27;95893.66;;;22.81;42.57
84134;BME280;74235;48.688;9.708;2024-02-23T09:18:56;95878.09;;;22.78;41.87
84134;BME280;74235;48.688;9.708;2024-02-23T09:21:24;95891.41;;;22.71;42.15
84134;BME280;74235;48.688;9.708;2024-02-23T09:23:51;95894.34;;;22.66;41.65
84134;BME280;74235;48.688;9.708;2024-02-23T09:26:19;95904.13;;;22.58;40.12
84134;BME280;74235;48.688;9.708;2024-02-23T09:28:47;95898.59;;;22.55;41.11
84134;BME280;74235;48.688;9.708;2024-02-23T09:31:14;95901.97;;;22.52;40.89
84134;BME280;74235;48.688;9.708;2024-02-23T09:33:42;95908.53;;;22.51;39.95
84134;BME280;74235;48.688;9.708;2024-02-23T09:36:12;95900.75;;;22.49;40.27
84134;BME280;74235;48.688;9.708;2024-02-23T09:38:40;95892.47;;;22.46;40.26
84134;BME280;74235;48.688;9.708;2024-02-23T09:41:14;95898.22;;;22.44;39.91
84134;BME280;74235;48.688;9.708;2024-02-23T09:43:44;95900.47;;;22.42;40.50
84134;BME280;74235;48.688;9.708;2024-02-23T09:46:13;95910.16;;;22.43;39.99
84134;BME280;74235;48.688;9.708;2024-02-23T09:48:42;95905.22;;;22.45;40.40
84134;BME280;74235;48.688;9.708;2024-02-23T09:51:13;95907.72;;;22.50;40.70
84134;BME280;74235;48.688;9.708;2024-02-23T09:53:41;95899.75;;;22.54;41.40
84134;BME280;74235;48.688;9.708;2024-02-23T09:56:10;95908.28;;;22.56;42.02
84134;BME280;74235;48.688;9.708;2024-02-23T09:58:39;95907.97;;;22.57;41.88
84134;BME280;74235;48.688;9.708;2024-02-23T10:01:10;95917.97;;;22.57;42.14
84134;BME280;74235;48.688;9.708;2024-02-23T10:03:39;95917.97;;;22.57;41.02
84134;BME280;74235;48.688;9.708;2024-02-23T10:06:07;95907.41;;;22.64;42.38
84134;BME280;74235;48.688;9.708;2024-02-23T10:08:36;95904.69;;;22.64;40.76
84134;BME280;74235;48.688;9.708;2024-02-23T10:11:04;95905.50;;;22.64;41.77
84134;BME280;74235;48.688;9.708;2024-02-23T10:13:34;95907.41;;;22.64;42.42
84134;BME280;74235;48.688;9.708;2024-02-23T10:16:02;95916.19;;;22.61;41.94
84134;BME280;74235;48.688;9.708;2024-02-23T10:18:42;95922.97;;;22.67;42.78
84134;BME280;74235;48.688;9.708;2024-02-23T10:21:09;95934.47;;;22.64;42.05
84134;BME280;74235;48.688;9.708;2024-02-23T10:23:39;95927.94;;;22.65;42.13
84134;BME280;74235;48.688;9.708;2024-02-23T10:26:07;95929.97;;;22.68;42.16
84134;BME280;74235;48.688;9.708;2024-02-23T10:28:36;95926.47;;;22.67;41.68
84134;BME280;74235;48.688;9.708;2024-02-23T10:31:06;95911.91;;;22.60;42.47
84134;BME280;74235;48.688;9.708;2024-02-23T10:33:38;95920.50;;;22.62;42.68
84134;BME280;74235;48.688;9.708;2024-02-23T10:36:07;95923.63;;;22.52;40.15
84134;BME280;74235;48.688;9.708;2024-02-23T10:38:40;95916.81;;;22.46;41.34
84134;BME280;74235;48.688;9.708;2024-02-23T10:41:12;95915.91;;;22.42;40.29
84134;BME280;74235;48.688;9.708;2024-02-23T10:43:44;95914.66;;;22.39;41.01
84134;BME280;74235;48.688;9.708;2024-02-23T10:46:14;95920.41;;;22.38;40.55
84134;BME280;74235;48.688;9.708;2024-02-23T10:48:44;95922.66;;;22.36;41.06
84134;BME280;74235;48.688;9.708;2024-02-23T10:51:14;95924.47;;;22.32;40.74
84134;BME280;74235;48.688;9.708;2024-02-23T10:53:49;95921.75;;;22.32;42.13
84134;BME280;74235;48.688;9.708;2024-02-23T10:56:18;95920.63;;;22.33;42.08
84134;BME280;74235;48.688;9.708;2024-02-23T10:58:45;95930.19;;;22.30;41.25
84134;BME280;74235;48.688;9.708;2024-02-23T11:01:14;95923.19;;;22.29;41.36
84134;BME280;74235;48.688;9.708;2024-02-23T11:03:44;95926.03;;;22.33;45.08
84134;BME280;74235;48.688;9.708;2024-02-23T11:06:16;95918.91;;;22.28;43.58
84134;BME280;74235;48.688;9.708;2024-02-23T11:08:50;95919.25;;;22.27;42.11
84134;BME280;74235;48.688;9.708;2024-02-23T11:11:18;95914.97;;;22.26;41.90
84134;BME280;74235;48.688;9.708;2024-02-23T11:13:46;95909.09;;;22.24;42.08
84134;BME280;74235;48.688;9.708;2024-02-23T11:16:22;95923.75;;;22.23;43.31
84134;BME280;74235;48.688;9.708;2024-02-23T11:19:03;95917.56;;;22.22;42.52
84134;BME280;74235;48.688;9.708;2024-02-23T11:21:35;95912.16;;;22.22;42.01
84134;BME280;74235;48.688;9.708;2024-02-23T11:24:06;95912.91;;;22.23;42.47
84134;BME280;74235;48.688;9.708;2024-02-23T11:26:36;95907.84;;;22.21;42.80
84134;BME280;74235;48.688;9.708;2024-02-23T11:29:10;95909.78;;;22.21;42.35
84134;BME280;74235;48.688;9.708;2024-02-23T11:31:44;95905.47;;;22.20;41.24
84134;BME280;74235;48.688;9.708;2024-02-23T11:34:13;95895.78;;;22.19;43.08
84134;BME280;74235;48.688;9.708;2024-02-23T11:36:40;95892.31;;;22.18;42.89
84134;BME280;74235;48.688;9.708;2024-02-23T11:39:10;95895.00;;;22.18;42.44
84134;BME280;74235;48.688;9.708;2024-02-23T11:41:40;95896.44;;;22.16;42.56
84134;BME280;74235;48.688;9.708;2024-02-23T11:44:09;95915.03;;;22.17;41.60
84134;BME280;74235;48.688;9.708;2024-02-23T11:46:37;95916.50;;;22.15;41.43
84134;BME280;74235;48.688;9.708;2024-02-23T11:49:04;95915.38;;;22.16;42.40
84134;BME280;74235;48.688;9.708;2024-02-23T11:51:33;95912.22;;;22.14;40.99
84134;BME280;74235;48.688;9.708;2024-02-23T11:54:01;95902.53;;;22.13;41.97
84134;BME280;74235;48.688;9.708;2024-02-23T11:56:30;95898.03;;;22.17;41.28
84134;BME280;74235;48.688;9.708;2024-02-23T11:58:58;95890.72;;;22.17;41.08
84134;BME280;74235;48.688;9.708;2024-02-23T12:01:29;95886.09;;;22.18;42.44
84134;BME280;74235;48.688;9.708;2024-02-23T12:03:56;95889.94;;;22.17;42.10
84134;BME280;74235;48.688;9.708;2024-02-23T12:06:24;95888.00;;;22.17;42.64
84134;BME280;74235;48.688;9.708;2024-02-23T12:08:55;95885.63;;;22.16;42.35
84134;BME280;74235;48.688;9.708;2024-02-23T12:11:22;95873.25;;;22.15;42.42
84134;BME280;74235;48.688;9.708;2024-02-23T12:13:52;95872.81;;;22.13;41.89
84134;BME280;74235;48.688;9.708;2024-02-23T12:16:20;95877.75;;;22.11;41.13
84134;BME280;74235;48.688;9.708;2024-02-23T12:18:53;95886.31;;;22.13;41.81
84134;BME280;74235;48.688;9.708;2024-02-23T12:21:21;95876.59;;;22.12;40.56
84134;BME280;74235;48.688;9.708;2024-02-23T12:23:49;95877.06;;;22.14;41.68
84134;BME280;74235;48.688;9.708;2024-02-23T12:26:18;95868.63;;;22.15;41.20
84134;BME280;74235;48.688;9.708;2024-02-23T12:28:46;95874.03;;;22.15;42.07
84134;BME280;74235;48.688;9.708;2024-02-23T12:31:16;95866.25;;;22.14;41.57
84134;BME280;74235;48.688;9.708;2024-02-23T12:33:50;95861.63;;;22.14;42.61
84134;BME280;74235;48.688;9.708;2024-02-23T12:36:18;95874.03;;;22.15;41.92
84134;BME280;74235;48.688;9.708;2024-02-23T12:38:45;95864.00;;;22.16;41.34
84134;BME280;74235;48.688;9.708;2024-02-23T12:41:13;95864.00;;;22.16;42.61
84134;BME280;74235;48.688;9.708;2024-02-23T12:43:41;95852.06;;;22.17;40.95
84134;BME280;74235;48.688;9.708;2024-02-23T12:46:11;95859.38;;;22.16;40.88
84134;BME280;74235;48.688;9.708;2024-02-23T12:48:43;95857.91;;;22.19;42.10
84134;BME280;74235;48.688;9.708;2024-02-23T12:51:10;95865.59;;;22.17;42.39
84134;BME280;74235;48.688;9.708;2024-02-23T12:53:41;95869.41;;;22.16;42.34
84134;BME280;74235;48.688;9.708;2024-02-23T12:56:11;95862.41;;;22.15;41.30
84134;BME280;74235;48.688;9.708;2024-02-23T12:58:40;95849.91;;;22.10;41.09
84134;BME280;74235;48.688;9.708;2024-02-23T13:01:08;95867.03;;;22.14;41.44
84134;BME280;74235;48.688;9.708;2024-02-23T13:03:38;95859.50;;;22.20;43.31
84134;BME280;74235;48.688;9.708;2024-02-23T13:06:07;95852.66;;;22.22;42.44